createdAt,value
2018-12-17T00:00:48.408Z,3.70
2018-12-17T00:03:16.095Z,3.60
2018-12-17T00:05:43.875Z,3.60
2018-12-17T00:08:11.572Z,3.60
2018-12-17T00:10:39.175Z,3.60
2018-12-17T00:13:06.807Z,3.60
2018-12-17T00:15:34.413Z,3.60
2018-12-17T00:18:02.061Z,3.50
2018-12-17T00:20:29.677Z,3.40
2018-12-17T00:22:57.305Z,3.40
2018-12-17T00:25:24.956Z,3.40
2018-12-17T00:27:52.613Z,3.40
2018-12-17T00:30:20.224Z,3.40
2018-12-17T00:32:48.083Z,3.40
2018-12-17T00:35:15.860Z,3.50
2018-12-17T00:37:43.522Z,3.60
2018-12-17T00:40:11.383Z,3.60
2018-12-17T00:42:38.985Z,3.60
2018-12-17T00:45:07.206Z,3.60
2018-12-17T00:47:34.868Z,3.60
2018-12-17T00:50:02.514Z,3.50
2018-12-17T00:52:30.142Z,3.50
2018-12-17T00:54:57.815Z,3.60
2018-12-17T00:57:25.460Z,3.60
2018-12-17T00:59:53.075Z,3.60
2018-12-17T01:02:20.744Z,3.70
2018-12-17T01:04:48.354Z,3.70
2018-12-17T01:07:17.923Z,3.70
2018-12-17T01:09:45.539Z,3.80
2018-12-17T01:12:13.151Z,3.70
2018-12-17T01:14:46.742Z,3.80
2018-12-17T01:17:14.511Z,3.70
2018-12-17T01:19:42.149Z,3.80
2018-12-17T01:22:09.731Z,3.70
2018-12-17T01:24:37.320Z,3.70
2018-12-17T01:27:04.996Z,3.70
2018-12-17T01:29:32.625Z,3.70
2018-12-17T01:32:00.231Z,3.80
2018-12-17T01:34:27.835Z,3.80
2018-12-17T01:36:55.429Z,3.90
2018-12-17T01:39:23.065Z,3.80
2018-12-17T01:41:50.726Z,3.80
2018-12-17T01:44:18.318Z,3.80
2018-12-17T01:46:45.922Z,3.80
2018-12-17T01:49:13.551Z,3.80
2018-12-17T01:51:41.160Z,3.90
2018-12-17T01:54:08.799Z,3.80
2018-12-17T01:56:36.429Z,3.90
2018-12-17T01:59:04.028Z,3.90
2018-12-17T02:01:31.834Z,3.80
2018-12-17T02:03:59.524Z,3.80
2018-12-17T02:06:27.225Z,3.80
2018-12-17T02:08:54.852Z,3.90
2018-12-17T02:11:22.430Z,4.00
2018-12-17T02:13:50.028Z,4.00
2018-12-17T02:16:17.621Z,4.00
2018-12-17T02:18:46.351Z,3.90
2018-12-17T02:21:14.183Z,3.90
2018-12-17T02:23:41.975Z,3.90
2018-12-17T02:26:10.606Z,3.90
2018-12-17T02:28:38.347Z,3.90
2018-12-17T02:31:06.215Z,3.80
2018-12-17T02:33:34.004Z,3.80
2018-12-17T02:36:01.888Z,3.90
2018-12-17T02:38:29.637Z,3.80
2018-12-17T02:40:57.366Z,3.90
2018-12-17T02:43:24.972Z,3.90
2018-12-17T02:45:52.586Z,3.90
2018-12-17T02:48:20.254Z,3.90
2018-12-17T02:50:47.854Z,3.90
2018-12-17T02:53:15.488Z,3.90
2018-12-17T02:55:43.112Z,4.00
2018-12-17T02:58:10.773Z,4.00
2018-12-17T03:00:38.358Z,4.00
2018-12-17T03:03:06.016Z,4.00
2018-12-17T03:05:33.650Z,4.00
2018-12-17T03:08:01.301Z,4.00
2018-12-17T03:10:28.924Z,4.00
2018-12-17T03:12:56.514Z,4.00
2018-12-17T03:15:24.156Z,4.00
2018-12-17T03:17:51.807Z,4.00
2018-12-17T03:20:19.460Z,4.00
2018-12-17T03:22:47.067Z,3.90
2018-12-17T03:25:14.720Z,3.80
2018-12-17T03:27:42.323Z,4.00
2018-12-17T03:30:09.927Z,3.90
2018-12-17T03:32:37.557Z,3.90
2018-12-17T03:35:05.272Z,3.90
2018-12-17T03:37:32.875Z,3.90
2018-12-17T03:40:00.563Z,4.00
2018-12-17T03:42:28.201Z,4.00
2018-12-17T03:44:55.808Z,3.90
2018-12-17T03:47:23.399Z,4.00
2018-12-17T03:49:51.132Z,4.00
2018-12-17T03:52:18.706Z,3.90
2018-12-17T03:54:46.410Z,3.90
2018-12-17T03:57:14.028Z,3.90
2018-12-17T03:59:41.736Z,3.90
2018-12-17T04:02:10.274Z,4.00
2018-12-17T04:04:38.023Z,3.90
2018-12-17T04:07:05.723Z,3.90
2018-12-17T04:09:33.348Z,4.00
2018-12-17T04:12:00.955Z,3.90
2018-12-17T04:14:28.631Z,3.90
2018-12-17T04:16:56.255Z,4.00
2018-12-17T04:19:23.902Z,4.00
2018-12-17T04:21:52.989Z,3.90
2018-12-17T04:24:20.890Z,4.00
2018-12-17T04:26:48.523Z,4.00
2018-12-17T04:29:16.145Z,4.00
2018-12-17T04:31:43.732Z,4.00
2018-12-17T04:34:11.361Z,4.00
2018-12-17T04:36:38.943Z,4.10
2018-12-17T04:39:06.660Z,4.10
2018-12-17T04:41:34.288Z,4.00
2018-12-17T04:44:01.911Z,4.00
2018-12-17T04:46:29.502Z,4.00
2018-12-17T04:48:57.158Z,4.10
2018-12-17T04:51:24.998Z,4.00
2018-12-17T04:53:52.659Z,4.00
2018-12-17T04:56:20.295Z,4.10
2018-12-17T04:58:47.917Z,4.10
2018-12-17T05:01:15.574Z,4.10
2018-12-17T05:03:44.633Z,4.10
2018-12-17T05:06:12.229Z,4.00
2018-12-17T05:08:39.844Z,3.90
2018-12-17T05:11:07.539Z,3.90
2018-12-17T05:13:35.181Z,3.90
2018-12-17T05:16:02.743Z,3.90
2018-12-17T05:18:30.352Z,4.00
2018-12-17T05:20:57.955Z,4.10
2018-12-17T05:23:25.672Z,4.00
2018-12-17T05:25:53.306Z,4.00
2018-12-17T05:28:20.939Z,4.10
2018-12-17T05:30:48.537Z,4.00
2018-12-17T05:33:16.477Z,4.00
2018-12-17T05:35:44.079Z,3.90
2018-12-17T05:38:12.233Z,4.10
2018-12-17T05:40:40.006Z,4.00
2018-12-17T05:43:07.613Z,4.00
2018-12-17T05:45:35.199Z,4.00
2018-12-17T05:48:02.759Z,4.00
2018-12-17T05:50:30.392Z,3.90
2018-12-17T05:52:58.036Z,3.90
2018-12-17T05:55:25.621Z,4.10
2018-12-17T05:57:53.246Z,4.30
2018-12-17T06:00:20.962Z,4.20
2018-12-17T06:02:48.596Z,4.00
2018-12-17T06:05:16.192Z,3.90
2018-12-17T06:07:43.883Z,3.90
2018-12-17T06:10:11.501Z,4.00
2018-12-17T06:12:39.087Z,4.10
2018-12-17T06:15:06.925Z,4.00
2018-12-17T06:17:34.487Z,4.00
2018-12-17T06:20:02.148Z,3.90
2018-12-17T06:22:29.715Z,4.00
2018-12-17T06:24:57.343Z,4.00
2018-12-17T06:27:24.926Z,4.10
2018-12-17T06:29:52.624Z,4.10
2018-12-17T06:34:55.956Z,4.10
2018-12-17T06:37:23.539Z,4.10
2018-12-17T06:39:51.220Z,4.10
2018-12-17T06:42:18.823Z,4.30
2018-12-17T06:44:46.445Z,4.30
2018-12-17T06:47:14.036Z,4.00
2018-12-17T06:49:41.699Z,3.90
2018-12-17T06:52:09.271Z,3.90
2018-12-17T06:54:36.973Z,3.90
2018-12-17T06:57:04.948Z,3.90
2018-12-17T06:59:32.599Z,4.10
2018-12-17T07:02:00.367Z,4.00
2018-12-17T07:04:27.999Z,4.00
2018-12-17T07:06:55.562Z,3.90
2018-12-17T07:09:23.367Z,3.90
2018-12-17T07:11:50.965Z,3.90
2018-12-17T07:14:18.617Z,3.90
2018-12-17T07:16:46.425Z,3.90
2018-12-17T07:19:14.103Z,3.90
2018-12-17T07:21:41.689Z,3.80
2018-12-17T07:24:09.339Z,3.70
2018-12-17T07:26:36.943Z,3.70
2018-12-17T07:29:04.508Z,3.70
2018-12-17T07:31:32.702Z,3.60
2018-12-17T07:34:00.550Z,3.60
2018-12-17T07:36:28.148Z,3.70
2018-12-17T07:39:08.477Z,3.80
2018-12-17T07:41:45.369Z,3.80
2018-12-17T07:44:13.009Z,3.70
2018-12-17T07:46:40.923Z,3.80
2018-12-17T07:49:08.555Z,3.90
2018-12-17T07:51:36.891Z,3.90
2018-12-17T07:54:04.698Z,3.80
2018-12-17T07:56:32.413Z,3.80
2018-12-17T07:59:00.087Z,3.80
2018-12-17T08:01:27.839Z,3.80
2018-12-17T08:03:55.549Z,3.90
2018-12-17T08:06:23.197Z,3.90
2018-12-17T08:08:50.971Z,4.00
2018-12-17T08:11:18.665Z,4.00
2018-12-17T08:13:46.496Z,3.90
2018-12-17T08:16:14.294Z,4.00
2018-12-17T08:18:41.979Z,4.00
2018-12-17T08:21:09.692Z,4.10
2018-12-17T08:23:37.663Z,4.00
2018-12-17T08:26:06.217Z,4.00
2018-12-17T08:28:34.368Z,4.10
2018-12-17T08:31:02.054Z,4.10
2018-12-17T08:33:29.783Z,4.20
2018-12-17T08:35:57.417Z,4.30
2018-12-17T08:38:28.005Z,4.50
2018-12-17T08:40:55.997Z,4.60
2018-12-17T08:43:23.643Z,4.60
2018-12-17T08:45:51.455Z,4.50
2018-12-17T08:48:19.355Z,4.50
2018-12-17T08:50:47.303Z,4.50
2018-12-17T08:53:15.280Z,4.40
2018-12-17T08:55:43.206Z,4.40
2018-12-17T08:58:11.168Z,4.40
2018-12-17T09:00:39.088Z,4.40
2018-12-17T09:03:07.162Z,4.50
2018-12-17T09:05:35.181Z,4.40
2018-12-17T09:08:03.016Z,4.60
2018-12-17T09:10:31.144Z,4.60
2018-12-17T09:12:58.858Z,4.60
2018-12-17T09:15:27.588Z,4.80
2018-12-17T09:17:55.347Z,4.70
2018-12-17T09:20:23.263Z,4.80
2018-12-17T09:22:50.863Z,4.70
2018-12-17T09:25:18.844Z,4.80
2018-12-17T09:27:46.536Z,4.90
2018-12-17T09:30:18.354Z,5.00
2018-12-17T09:32:44.536Z,5.10
2018-12-17T09:35:12.179Z,5.30
2018-12-17T09:37:40.067Z,5.30
2018-12-17T09:40:08.001Z,5.60
2018-12-17T09:42:35.987Z,5.70
2018-12-17T09:45:05.021Z,5.70
2018-12-17T09:47:32.633Z,6.00
2018-12-17T09:50:00.481Z,5.90
2018-12-17T09:52:28.260Z,5.90
2018-12-17T09:54:56.500Z,6.00
2018-12-17T09:57:24.607Z,5.90
2018-12-17T09:59:52.604Z,5.90
2018-12-17T10:02:20.258Z,5.90
2018-12-17T10:04:49.544Z,6.20
2018-12-17T10:09:51.477Z,6.70
2018-12-17T10:12:33.614Z,6.60
2018-12-17T10:15:01.797Z,6.60
2018-12-17T10:17:29.455Z,6.40
2018-12-17T10:19:57.263Z,6.10
2018-12-17T10:22:25.774Z,6.00
2018-12-17T10:24:53.627Z,5.90
2018-12-17T10:27:21.643Z,5.80
2018-12-17T10:29:49.793Z,5.80
2018-12-17T10:32:17.645Z,5.80
2018-12-17T10:34:45.773Z,5.80
2018-12-17T10:37:14.114Z,5.70
2018-12-17T10:39:42.512Z,5.70
2018-12-17T10:42:10.357Z,5.60
2018-12-17T10:44:38.884Z,6.30
2018-12-17T10:47:07.494Z,6.20
2018-12-17T10:49:35.209Z,6.30
2018-12-17T10:52:05.105Z,6.20
2018-12-17T10:54:34.697Z,5.90
2018-12-17T10:57:02.611Z,5.80
2018-12-17T10:59:31.022Z,5.80
2018-12-17T11:02:00.934Z,5.80
2018-12-17T11:04:30.621Z,5.90
2018-12-17T11:06:59.320Z,5.80
2018-12-17T11:09:27.128Z,5.90
2018-12-17T11:11:56.398Z,5.70
2018-12-17T11:14:24.694Z,5.80
2018-12-17T11:16:52.353Z,5.90
2018-12-17T11:19:20.191Z,5.80
2018-12-17T11:21:48.043Z,5.90
2018-12-17T11:24:15.727Z,5.90
2018-12-17T11:26:44.186Z,5.90
2018-12-17T11:29:13.367Z,6.00
2018-12-17T11:31:41.363Z,5.90
2018-12-17T11:34:09.530Z,6.00
2018-12-17T11:36:37.445Z,6.00
2018-12-17T11:39:07.741Z,6.00
2018-12-17T11:41:35.552Z,6.00
2018-12-17T11:44:03.294Z,6.00
2018-12-17T11:46:30.997Z,6.00
2018-12-17T11:48:59.335Z,6.00
2018-12-17T11:51:27.236Z,6.00
2018-12-17T11:53:54.975Z,6.00
2018-12-17T11:56:27.097Z,6.00
2018-12-17T11:58:55.484Z,6.10
2018-12-17T12:01:23.176Z,6.00
2018-12-17T12:03:50.838Z,6.00
2018-12-17T12:06:18.636Z,5.80
2018-12-17T12:08:46.974Z,5.70
2018-12-17T12:11:14.920Z,5.60
2018-12-17T12:13:42.909Z,5.60
2018-12-17T12:16:10.849Z,5.60
2018-12-17T12:18:39.000Z,5.60
2018-12-17T12:21:07.314Z,5.50
2018-12-17T12:23:47.179Z,5.40
2018-12-17T12:26:15.267Z,5.40
2018-12-17T12:28:43.235Z,5.40
2018-12-17T12:31:11.201Z,5.50
2018-12-17T12:33:38.868Z,5.40
2018-12-17T12:36:06.596Z,5.50
2018-12-17T12:38:34.219Z,5.40
2018-12-17T12:41:01.981Z,5.50
2018-12-17T12:43:29.740Z,5.50
2018-12-17T12:45:57.426Z,5.50
2018-12-17T12:48:25.341Z,5.60
2018-12-17T12:50:53.009Z,5.70
2018-12-17T12:53:20.647Z,5.70
2018-12-17T12:55:48.740Z,5.90
2018-12-17T12:58:16.439Z,6.00
2018-12-17T13:00:44.232Z,6.10
2018-12-17T13:03:11.931Z,6.10
2018-12-17T13:05:39.590Z,6.20
2018-12-17T13:08:07.558Z,6.30
2018-12-17T13:10:35.474Z,6.30
2018-12-17T13:13:03.586Z,9.10
2018-12-17T13:15:31.542Z,6.20
2018-12-17T13:17:59.436Z,6.20
2018-12-17T13:20:27.353Z,6.30
2018-12-17T13:22:55.294Z,6.20
2018-12-17T13:25:24.703Z,6.20
2018-12-17T13:27:52.459Z,6.20
2018-12-17T13:30:20.570Z,6.20
2018-12-17T13:32:48.944Z,6.30
2018-12-17T13:35:16.795Z,6.20
2018-12-17T13:37:44.498Z,6.20
2018-12-17T13:40:12.136Z,6.30
2018-12-17T13:42:40.070Z,6.10
2018-12-17T13:45:08.279Z,6.20
2018-12-17T13:47:36.094Z,6.30
2018-12-17T13:50:09.954Z,6.20
2018-12-17T13:52:43.507Z,6.20
2018-12-17T13:55:12.085Z,6.30
2018-12-17T13:57:40.818Z,8.00
2018-12-17T14:00:11.772Z,6.20
2018-12-17T14:02:40.047Z,6.20
2018-12-17T14:05:07.982Z,6.10
2018-12-17T14:07:36.270Z,6.10
2018-12-17T14:10:12.086Z,6.10
2018-12-17T14:12:40.201Z,6.00
2018-12-17T14:15:08.209Z,6.10
2018-12-17T14:17:36.290Z,6.00
2018-12-17T14:20:12.188Z,6.10
2018-12-17T14:22:40.920Z,6.00
2018-12-17T14:25:09.032Z,6.10
2018-12-17T14:27:37.099Z,6.00
2018-12-17T14:30:07.648Z,6.00
2018-12-17T14:32:35.554Z,6.00
2018-12-17T14:35:03.935Z,6.00
2018-12-17T14:37:31.607Z,6.10
2018-12-17T14:39:59.807Z,6.10
2018-12-17T14:42:28.906Z,6.10
2018-12-17T14:44:57.216Z,6.00
2018-12-17T14:47:28.464Z,6.00
2018-12-17T14:49:56.980Z,5.90
2018-12-17T14:52:24.858Z,6.00
2018-12-17T14:54:53.517Z,6.00
2018-12-17T14:57:21.681Z,6.00
2018-12-17T14:59:50.089Z,5.90
2018-12-17T15:02:18.569Z,6.00
2018-12-17T15:04:47.046Z,6.00
2018-12-17T15:07:15.738Z,6.10
2018-12-17T15:09:44.373Z,6.20
2018-12-17T15:12:13.166Z,6.20
2018-12-17T15:14:41.209Z,6.20
2018-12-17T15:17:09.749Z,6.20
2018-12-17T15:19:37.594Z,6.20
2018-12-17T15:22:05.491Z,6.20
2018-12-17T15:24:40.243Z,6.20
2018-12-17T15:27:02.992Z,6.20
2018-12-17T15:29:31.153Z,6.20
2018-12-17T15:31:58.955Z,6.20
2018-12-17T15:34:34.693Z,6.20
2018-12-17T15:37:02.339Z,6.20
2018-12-17T15:39:29.958Z,6.20
2018-12-17T15:41:57.829Z,6.20
2018-12-17T15:44:25.667Z,6.20
2018-12-17T15:46:53.798Z,6.20
2018-12-17T15:49:21.605Z,6.10
2018-12-17T15:51:49.373Z,6.20
2018-12-17T15:54:17.132Z,6.20
2018-12-17T15:56:45.064Z,6.30
2018-12-17T15:59:12.987Z,6.40
2018-12-17T16:01:40.620Z,6.40
2018-12-17T16:04:09.016Z,6.30
2018-12-17T16:06:36.724Z,6.30
2018-12-17T16:09:08.058Z,6.20
2018-12-17T16:11:35.731Z,6.20
2018-12-17T16:14:03.518Z,6.20
2018-12-17T16:16:31.285Z,6.30
2018-12-17T16:18:59.021Z,6.30
2018-12-17T16:21:26.721Z,6.30
2018-12-17T16:23:54.537Z,6.30
2018-12-17T16:26:22.205Z,6.30
2018-12-17T16:28:49.906Z,6.20
2018-12-17T16:31:17.589Z,6.30
2018-12-17T16:33:45.276Z,6.30
2018-12-17T16:36:25.774Z,6.40
2018-12-17T16:38:54.240Z,6.40
2018-12-17T16:41:21.822Z,6.30
2018-12-17T16:43:49.680Z,6.20
2018-12-17T16:46:17.792Z,6.20
2018-12-17T16:48:45.442Z,6.10
2018-12-17T16:51:13.221Z,6.20
2018-12-17T16:53:40.868Z,6.20
2018-12-17T16:56:09.034Z,6.20
2018-12-17T16:58:36.754Z,6.40
2018-12-17T17:01:04.494Z,6.50
2018-12-17T17:03:32.174Z,6.50
2018-12-17T17:05:59.791Z,6.50
2018-12-17T17:08:27.531Z,6.40
2018-12-17T17:10:55.145Z,6.60
2018-12-17T17:13:22.809Z,6.50
2018-12-17T17:15:51.106Z,6.50
2018-12-17T17:18:19.467Z,6.60
2018-12-17T17:20:47.150Z,6.50
2018-12-17T17:23:14.898Z,6.50
2018-12-17T17:25:42.617Z,6.40
2018-12-17T17:28:10.202Z,6.40
2018-12-17T17:30:37.983Z,6.40
2018-12-17T17:33:05.681Z,6.50
2018-12-17T17:35:33.462Z,6.50
2018-12-17T17:38:01.155Z,6.60
2018-12-17T17:40:28.802Z,6.60
2018-12-17T17:42:56.640Z,6.70
2018-12-17T17:45:24.321Z,6.50
2018-12-17T17:47:52.066Z,6.50
2018-12-17T17:50:19.654Z,6.50
2018-12-17T17:52:47.277Z,6.60
2018-12-17T17:55:14.902Z,6.50
2018-12-17T17:57:42.641Z,6.50
2018-12-17T18:00:10.593Z,6.50
2018-12-17T18:02:38.324Z,6.40
2018-12-17T18:05:06.146Z,6.40
2018-12-17T18:07:34.957Z,6.40
2018-12-17T18:10:04.641Z,6.50
2018-12-17T18:12:32.242Z,6.50
2018-12-17T18:14:59.888Z,6.50
2018-12-17T18:17:27.784Z,6.40
2018-12-17T18:19:55.437Z,6.40
2018-12-17T18:22:23.115Z,6.30
2018-12-17T18:24:50.843Z,6.40
2018-12-17T18:27:18.463Z,6.30
2018-12-17T18:29:46.222Z,6.40
2018-12-17T18:32:13.924Z,6.50
2018-12-17T18:34:41.563Z,6.70
2018-12-17T18:37:09.201Z,6.60
2018-12-17T18:39:37.057Z,6.60
2018-12-17T18:42:04.701Z,6.70
2018-12-17T18:44:32.294Z,6.70
2018-12-17T18:47:00.083Z,6.50
2018-12-17T18:49:27.715Z,6.50
2018-12-17T18:51:55.335Z,6.60
2018-12-17T18:54:23.251Z,6.60
2018-12-17T18:56:50.929Z,6.60
2018-12-17T18:59:18.735Z,6.60
2018-12-17T19:01:46.389Z,6.70
2018-12-17T19:04:14.051Z,6.70
2018-12-17T19:06:41.784Z,6.60
2018-12-17T19:09:09.492Z,6.60
2018-12-17T19:11:37.202Z,6.60
2018-12-17T19:14:04.876Z,6.60
2018-12-17T19:16:32.607Z,6.70
2018-12-17T19:19:00.281Z,6.60
2018-12-17T19:21:27.915Z,6.70
2018-12-17T19:23:55.521Z,6.60
2018-12-17T19:26:23.132Z,6.60
2018-12-17T19:28:50.789Z,6.60
2018-12-17T19:31:18.418Z,6.50
2018-12-17T19:33:46.194Z,6.60
2018-12-17T19:36:13.803Z,6.70
2018-12-17T19:38:41.464Z,6.70
2018-12-17T19:41:09.060Z,6.70
2018-12-17T19:43:36.663Z,6.70
2018-12-17T19:46:04.263Z,6.80
2018-12-17T19:48:31.890Z,6.70
2018-12-17T19:50:59.475Z,6.70
2018-12-17T19:53:27.140Z,6.70
2018-12-17T19:55:54.745Z,6.60
2018-12-17T19:58:22.420Z,6.60
2018-12-17T20:00:50.152Z,6.60
2018-12-17T20:03:17.813Z,6.70
2018-12-17T20:05:45.415Z,6.60
2018-12-17T20:08:13.220Z,6.70
2018-12-17T20:10:40.786Z,6.60
2018-12-17T20:13:08.402Z,6.70
2018-12-17T20:15:36.031Z,6.60
2018-12-17T20:18:03.742Z,6.50
2018-12-17T20:20:31.424Z,6.60
2018-12-17T20:22:59.048Z,6.60
2018-12-17T20:25:28.092Z,6.60
2018-12-17T20:27:55.912Z,6.60
2018-12-17T20:30:23.511Z,6.60
2018-12-17T20:32:53.718Z,6.60
2018-12-17T20:35:21.018Z,6.60
2018-12-17T20:37:48.598Z,6.60
2018-12-17T20:40:16.288Z,6.50
2018-12-17T20:42:44.002Z,6.50
2018-12-17T20:45:11.774Z,6.50
2018-12-17T20:47:39.410Z,6.30
2018-12-17T20:50:07.384Z,6.30
2018-12-17T20:52:35.007Z,6.30
2018-12-17T20:55:02.568Z,6.30
2018-12-17T20:57:30.269Z,6.30
2018-12-17T20:59:58.067Z,6.20
2018-12-17T21:02:25.686Z,6.30
2018-12-17T21:04:53.561Z,6.40
2018-12-17T21:07:21.253Z,6.40
2018-12-17T21:09:48.903Z,6.50
2018-12-17T21:12:16.599Z,6.50
2018-12-17T21:14:44.218Z,6.50
2018-12-17T21:17:11.801Z,6.60
2018-12-17T21:19:39.566Z,6.60
2018-12-17T21:22:09.460Z,6.60
2018-12-17T21:24:37.079Z,6.50
2018-12-17T21:27:04.755Z,6.60
2018-12-17T21:29:32.392Z,6.70
2018-12-17T21:32:00.006Z,6.70
2018-12-17T21:34:27.700Z,6.50
2018-12-17T21:36:55.306Z,6.50
2018-12-17T21:39:22.901Z,6.60
2018-12-17T21:41:50.724Z,6.60
2018-12-17T21:44:18.295Z,6.60
2018-12-17T21:46:45.945Z,6.70
2018-12-17T21:49:13.716Z,6.60
2018-12-17T21:51:41.403Z,6.60
2018-12-17T21:54:08.991Z,6.60
2018-12-17T21:56:36.739Z,6.70
2018-12-17T21:59:04.623Z,6.70
2018-12-17T22:01:32.281Z,6.70
2018-12-17T22:03:59.904Z,6.60
2018-12-17T22:06:27.469Z,6.60
2018-12-17T22:08:55.151Z,6.70
2018-12-17T22:11:22.772Z,6.70
2018-12-17T22:13:50.389Z,6.60
2018-12-17T22:16:18.126Z,6.50
2018-12-17T22:18:45.728Z,6.50
2018-12-17T22:21:13.351Z,6.40
2018-12-17T22:23:40.955Z,6.30
2018-12-17T22:26:08.541Z,6.30
2018-12-17T22:28:36.143Z,6.30
2018-12-17T22:31:03.760Z,6.20
2018-12-17T22:33:31.325Z,6.20
2018-12-17T22:35:58.924Z,6.10
2018-12-17T22:38:26.590Z,6.20
2018-12-17T22:40:54.156Z,6.10
2018-12-17T22:43:21.777Z,6.20
2018-12-17T22:45:49.345Z,6.20
2018-12-17T22:48:16.997Z,6.30
2018-12-17T22:50:44.572Z,6.30
2018-12-17T22:53:12.147Z,6.20
2018-12-17T22:55:39.804Z,6.30
2018-12-17T22:58:07.352Z,6.40
2018-12-17T23:00:34.961Z,6.40
2018-12-17T23:03:02.572Z,6.30
2018-12-17T23:05:30.179Z,6.40
2018-12-17T23:07:57.827Z,6.40
2018-12-17T23:10:39.178Z,6.40
2018-12-17T23:13:18.601Z,6.40
2018-12-17T23:15:58.178Z,6.40
2018-12-17T23:18:25.344Z,6.40
2018-12-17T23:20:53.442Z,6.40
2018-12-17T23:23:21.415Z,6.50
2018-12-17T23:25:48.967Z,6.60
2018-12-17T23:28:16.597Z,6.60
2018-12-17T23:30:44.188Z,6.60
2018-12-17T23:33:11.793Z,6.60
2018-12-17T23:35:39.467Z,6.60
2018-12-17T23:38:07.279Z,6.60
2018-12-17T23:40:35.135Z,6.60
2018-12-17T23:43:02.766Z,6.60
2018-12-17T23:45:30.399Z,6.50
2018-12-17T23:47:58.051Z,6.50
2018-12-17T23:50:25.647Z,6.50
2018-12-17T23:52:53.405Z,6.60
2018-12-17T23:55:21.021Z,6.50
2018-12-17T23:57:48.621Z,6.50
